Time;durP1;ratioP1;P1;durP2;ratioP2;P2;SDS_P1;SDS_P2;PMS_P1;PMS_P2;Temp;Humidity;BMP_temperature;BMP_pressure;BME280_temperature;BME280_humidity;BME280_pressure;Samples;Min_cycle;Max_cycle;Signal;HPM_P1;HPM_P2
2023/01/25 00:00:20;;;;;;;14.82;8.43;;;2.00;99.90;;;;;;5068279;28;20074;-41
2023/01/25 00:02:45;;;;;;;14.52;9.00;;;2.00;99.90;;;;;;5068148;28;20028;-41
2023/01/25 00:05:11;;;;;;;15.93;9.98;;;1.90;99.90;;;;;;5067720;28;20385;-41
2023/01/25 00:07:36;;;;;;;16.17;9.45;;;1.80;99.90;;;;;;5068328;28;20031;-41
2023/01/25 00:10:02;;;;;;;16.48;9.52;;;1.80;99.90;;;;;;5068723;28;20059;-41
2023/01/25 00:12:28;;;;;;;12.73;8.32;;;1.80;99.90;;;;;;5066906;28;20115;-41
2023/01/25 00:14:53;;;;;;;15.45;9.30;;;1.90;99.90;;;;;;5066748;28;20033;-41
2023/01/25 00:17:19;;;;;;;13.07;8.77;;;1.90;99.90;;;;;;5064947;28;20034;-41
2023/01/25 00:19:44;;;;;;;15.73;9.88;;;1.90;99.90;;;;;;5060477;28;20063;-41
2023/01/25 00:22:10;;;;;;;16.83;9.18;;;2.00;99.90;;;;;;5068402;28;20382;-41
2023/01/25 00:24:35;;;;;;;17.90;10.60;;;1.80;99.90;;;;;;5067819;28;20025;-41
2023/01/25 00:27:01;;;;;;;16.20;9.98;;;1.90;99.90;;;;;;5068144;28;20016;-41
2023/01/25 00:29:27;;;;;;;16.60;10.05;;;1.90;99.90;;;;;;5068137;28;20029;-41
2023/01/25 00:32:07;;;;;;;13.57;8.25;;;1.90;99.90;;;;;;5068579;28;20155;-41
2023/01/25 00:34:43;;;;;;;16.85;9.10;;;1.90;99.90;;;;;;5069841;28;20024;-41
2023/01/25 00:37:13;;;;;;;15.70;8.90;;;1.90;99.90;;;;;;5071676;28;20524;-41
2023/01/25 00:39:38;;;;;;;14.88;8.55;;;1.90;99.90;;;;;;5070571;28;20115;-41
2023/01/25 00:42:07;;;;;;;19.05;10.20;;;1.90;99.90;;;;;;5071700;28;20107;-41
2023/01/25 00:44:32;;;;;;;15.98;9.30;;;1.90;99.90;;;;;;5071385;28;20520;-41
2023/01/25 00:46:58;;;;;;;16.95;10.65;;;1.90;99.90;;;;;;5071673;28;20024;-41
2023/01/25 00:49:26;;;;;;;16.70;10.15;;;1.90;99.90;;;;;;5059341;28;20032;-41
2023/01/25 00:51:53;;;;;;;16.52;9.88;;;2.00;99.90;;;;;;5071572;28;20082;-41
2023/01/25 00:54:19;;;;;;;15.73;10.02;;;2.00;99.90;;;;;;5071571;28;20526;-41
2023/01/25 00:56:45;;;;;;;17.92;11.20;;;1.90;99.90;;;;;;5071073;28;20028;-41
2023/01/25 00:59:12;;;;;;;15.05;8.77;;;1.90;99.90;;;;;;5071481;28;20020;-41
2023/01/25 01:01:39;;;;;;;17.67;10.80;;;1.90;99.90;;;;;;5071645;28;20027;-41
2023/01/25 01:04:04;;;;;;;18.00;10.85;;;1.80;99.90;;;;;;5071206;28;20523;-41
2023/01/25 01:06:30;;;;;;;17.85;9.77;;;1.80;99.90;;;;;;5071087;28;20036;-41
2023/01/25 01:08:55;;;;;;;16.80;9.77;;;1.80;99.90;;;;;;5071114;28;20082;-41
2023/01/25 01:11:21;;;;;;;19.73;9.65;;;1.80;99.90;;;;;;5071041;28;20032;-41
2023/01/25 01:13:46;;;;;;;15.40;8.73;;;1.80;99.90;;;;;;5071027;28;20374;-41
2023/01/25 01:16:12;;;;;;;15.55;9.50;;;1.80;99.90;;;;;;5070733;28;20033;-41
2023/01/25 01:18:43;;;;;;;17.20;9.95;;;1.90;99.90;;;;;;5062503;28;20017;-41
2023/01/25 01:21:11;;;;;;;18.23;9.95;;;1.80;99.90;;;;;;5066183;28;20016;-40
2023/01/25 01:23:36;;;;;;;17.92;9.88;;;1.80;99.90;;;;;;5071223;28;20024;-40
2023/01/25 01:26:04;;;;;;;19.33;10.43;;;1.80;99.90;;;;;;5070520;28;20082;-40
2023/01/25 01:28:31;;;;;;;19.48;11.07;;;1.80;99.90;;;;;;5071129;28;20035;-40
2023/01/25 01:31:05;;;;;;;17.15;10.57;;;1.80;99.90;;;;;;5070904;28;20101;-40
2023/01/25 01:33:31;;;;;;;16.13;10.10;;;1.70;99.90;;;;;;5070625;28;20021;-41
2023/01/25 01:35:57;;;;;;;19.20;10.43;;;1.80;99.90;;;;;;5070280;28;20477;-41
2023/01/25 01:38:22;;;;;;;21.77;11.27;;;1.70;99.90;;;;;;5070783;28;20105;-41
2023/01/25 01:40:49;;;;;;;21.17;11.98;;;1.70;99.90;;;;;;5070965;28;20796;-41
2023/01/25 01:43:19;;;;;;;17.10;11.07;;;1.60;99.90;;;;;;5068785;28;20053;-41
2023/01/25 01:45:49;;;;;;;19.70;10.65;;;1.60;99.90;;;;;;5069669;28;20481;-41
2023/01/25 01:48:18;;;;;;;16.10;9.90;;;1.60;99.90;;;;;;5066370;28;20444;-40
2023/01/25 01:50:44;;;;;;;15.43;9.07;;;1.60;99.90;;;;;;5062684;28;20028;-41
2023/01/25 01:53:10;;;;;;;19.65;10.98;;;1.60;99.90;;;;;;5070421;28;20020;-41
2023/01/25 01:55:36;;;;;;;20.05;11.18;;;1.70;99.90;;;;;;5069582;28;20081;-41
2023/01/25 01:58:03;;;;;;;17.25;9.90;;;1.70;99.90;;;;;;5070495;28;20603;-41
2023/01/25 02:00:33;;;;;;;15.77;8.45;;;1.80;99.90;;;;;;5070338;28;20170;-40
2023/01/25 02:02:59;;;;;;;16.27;7.97;;;1.70;99.90;;;;;;5070649;28;20542;-40
2023/01/25 02:05:34;;;;;;;14.98;8.20;;;1.80;99.90;;;;;;5070321;28;20037;-41
2023/01/25 02:08:04;;;;;;;12.48;7.35;;;1.80;99.90;;;;;;5070006;28;20035;-41
2023/01/25 02:10:29;;;;;;;14.27;8.60;;;1.80;99.90;;;;;;5070130;28;20027;-52
2023/01/25 02:12:56;;;;;;;13.27;8.05;;;1.80;99.90;;;;;;5069982;28;20028;-50
2023/01/25 02:15:22;;;;;;;13.68;8.32;;;1.80;99.90;;;;;;5069334;28;20413;-51
2023/01/25 02:17:48;;;;;;;16.80;9.60;;;1.70;99.90;;;;;;5065790;28;20017;-50
2023/01/25 02:20:20;;;;;;;11.95;7.60;;;1.80;99.90;;;;;;5060335;28;20025;-50
2023/01/25 02:22:58;;;;;;;15.52;8.43;;;1.80;99.90;;;;;;5069815;28;20319;-52
2023/01/25 02:25:24;;;;;;;15.65;8.73;;;1.90;99.90;;;;;;5052354;28;20032;-50
2023/01/25 02:27:58;;;;;;;16.40;8.98;;;1.90;99.90;;;;;;5049890;28;20021;-52
2023/01/25 02:30:23;;;;;;;17.48;8.60;;;1.90;99.90;;;;;;5049698;28;20099;-52
2023/01/25 02:32:49;;;;;;;17.60;9.20;;;1.90;99.90;;;;;;5049379;28;20159;-50
2023/01/25 02:35:23;;;;;;;15.63;9.68;;;1.80;99.90;;;;;;5049234;28;20044;-50
2023/01/25 02:37:49;;;;;;;15.50;8.93;;;1.80;99.90;;;;;;5049587;28;20390;-51
2023/01/25 02:40:17;;;;;;;16.80;8.85;;;1.80;99.90;;;;;;5049667;28;20017;-52
2023/01/25 02:42:43;;;;;;;15.43;8.30;;;1.80;99.90;;;;;;5047990;28;20116;-51
2023/01/25 02:45:15;;;;;;;14.15;9.07;;;1.80;99.90;;;;;;5049341;28;20049;-50
2023/01/25 02:47:40;;;;;;;14.98;8.73;;;1.70;99.90;;;;;;5051072;28;20081;-53
2023/01/25 02:50:07;;;;;;;17.25;9.95;;;1.80;99.90;;;;;;5060548;28;20029;-51
2023/01/25 02:52:32;;;;;;;18.10;9.35;;;1.80;99.90;;;;;;5067802;28;20376;-52
2023/01/25 02:54:58;;;;;;;15.38;9.93;;;1.80;99.90;;;;;;5068296;28;20031;-53
2023/01/25 02:57:23;;;;;;;16.23;9.57;;;1.70;99.90;;;;;;5069351;28;20029;-53
2023/01/25 02:59:49;;;;;;;15.80;10.05;;;1.70;99.90;;;;;;5069375;28;20433;-52
2023/01/25 03:02:15;;;;;;;18.17;9.60;;;1.80;99.90;;;;;;5069075;28;20048;-53
2023/01/25 03:04:40;;;;;;;17.38;9.82;;;1.80;99.90;;;;;;5068505;28;20533;-50
2023/01/25 03:07:06;;;;;;;19.42;10.52;;;2.00;99.90;;;;;;5068964;28;20362;-52
2023/01/25 03:09:31;;;;;;;18.73;10.48;;;1.90;99.90;;;;;;5067826;28;20031;-53
2023/01/25 03:11:57;;;;;;;19.73;11.20;;;1.80;99.90;;;;;;5067756;28;20024;-53
2023/01/25 03:14:22;;;;;;;18.13;10.55;;;1.80;99.90;;;;;;5068844;28;20024;-52
2023/01/25 03:16:48;;;;;;;20.88;12.13;;;1.80;99.90;;;;;;5068199;28;20025;-53
2023/01/25 03:19:14;;;;;;;21.15;11.50;;;1.80;99.90;;;;;;5056493;28;20017;-54
2023/01/25 03:21:40;;;;;;;19.25;11.15;;;1.80;99.90;;;;;;5068806;28;20145;-52
2023/01/25 03:24:07;;;;;;;20.25;11.55;;;1.80;99.90;;;;;;5068964;28;20090;-50
2023/01/25 03:27:09;;;;;;;20.08;11.35;;;1.80;99.90;;;;;;5068427;28;20501;-51
2023/01/25 03:29:18;;;;;;;19.20;11.93;;;1.90;99.90;;;;;;5067334;28;20166;-51
2023/01/25 03:31:44;;;;;;;24.13;13.18;;;1.80;99.90;;;;;;5068737;28;20104;-53
2023/01/25 03:34:09;;;;;;;23.00;13.43;;;1.80;99.90;;;;;;5068367;28;20024;-54
2023/01/25 03:36:35;;;;;;;26.17;13.75;;;1.70;99.90;;;;;;5068509;28;20028;-52
2023/01/25 03:39:00;;;;;;;21.83;12.45;;;1.60;99.90;;;;;;5068786;28;20028;-51
2023/01/25 03:41:26;;;;;;;23.75;12.50;;;1.70;99.90;;;;;;5068964;28;20020;-50
2023/01/25 03:43:51;;;;;;;26.15;14.63;;;1.60;99.90;;;;;;5068963;28;20025;-53
2023/01/25 03:46:17;;;;;;;26.08;15.32;;;1.60;99.90;;;;;;5068586;28;20486;-51
2023/01/25 03:48:42;;;;;;;26.95;13.63;;;1.50;99.90;;;;;;5060794;28;20082;-53
2023/01/25 03:51:08;;;;;;;27.15;15.35;;;1.60;99.90;;;;;;5064956;28;20028;-50
2023/01/25 03:53:34;;;;;;;26.98;14.02;;;1.60;99.90;;;;;;5069159;28;20561;-52
2023/01/25 03:56:02;;;;;;;30.35;15.38;;;1.60;99.90;;;;;;5068470;28;20028;-50
2023/01/25 03:58:29;;;;;;;26.92;14.98;;;1.60;99.90;;;;;;5069148;28;20113;-52
2023/01/25 04:00:56;;;;;;;28.45;15.18;;;1.60;99.90;;;;;;5068822;28;20029;-51
2023/01/25 04:03:22;;;;;;;31.42;14.98;;;1.70;99.90;;;;;;5068839;28;20028;-50
2023/01/25 04:05:48;;;;;;;34.80;17.63;;;1.70;99.90;;;;;;5067964;28;20021;-50
2023/01/25 04:08:14;;;;;;;28.67;14.95;;;1.60;99.90;;;;;;5071088;28;20028;-52
2023/01/25 04:10:39;;;;;;;41.63;18.80;;;1.50;99.90;;;;;;5072885;28;20564;-49
2023/01/25 04:13:05;;;;;;;37.53;18.63;;;1.40;99.90;;;;;;5072693;28;20448;-54
2023/01/25 04:15:30;;;;;;;38.17;19.73;;;1.40;99.90;;;;;;5072508;28;20032;-49
2023/01/25 04:17:56;;;;;;;32.85;17.05;;;1.40;99.90;;;;;;5067119;28;20055;-52
2023/01/25 04:20:22;;;;;;;39.53;18.25;;;1.40;99.90;;;;;;5062148;28;20032;-50
2023/01/25 04:22:47;;;;;;;37.45;18.25;;;1.40;99.90;;;;;;5072410;28;20032;-51
2023/01/25 04:25:13;;;;;;;39.63;20.67;;;1.40;99.90;;;;;;5071817;28;20444;-51
2023/01/25 04:27:38;;;;;;;43.63;19.17;;;1.50;99.90;;;;;;5070785;28;20105;-50
2023/01/25 04:30:05;;;;;;;34.95;16.92;;;1.50;99.90;;;;;;5072018;28;20100;-51
2023/01/25 04:32:30;;;;;;;41.60;19.98;;;1.50;99.90;;;;;;5070676;28;20573;-50
2023/01/25 04:34:56;;;;;;;47.85;22.80;;;1.50;99.90;;;;;;5071323;28;20024;-50
2023/01/25 04:37:21;;;;;;;47.58;22.10;;;1.40;99.90;;;;;;5072057;28;20028;-52
2023/01/25 04:39:47;;;;;;;49.05;23.02;;;1.40;99.90;;;;;;5072067;28;20115;-50
2023/01/25 04:42:12;;;;;;;52.30;23.13;;;1.30;99.90;;;;;;5071908;28;20024;-51
2023/01/25 04:44:38;;;;;;;59.70;27.27;;;1.30;99.90;;;;;;5071155;28;20021;-53
2023/01/25 04:47:03;;;;;;;56.63;26.08;;;1.30;99.90;;;;;;5070387;28;20409;-52
2023/01/25 04:49:29;;;;;;;61.35;27.55;;;1.30;99.90;;;;;;5059126;28;20033;-53
2023/01/25 04:51:54;;;;;;;57.05;24.98;;;1.30;99.90;;;;;;5061149;28;20029;-52
2023/01/25 04:54:20;;;;;;;68.88;27.48;;;1.40;99.90;;;;;;5034403;28;20030;-50
2023/01/25 04:56:45;;;;;;;67.10;27.55;;;1.40;99.90;;;;;;5039215;28;20033;-53
2023/01/25 04:59:11;;;;;;;63.97;27.05;;;1.40;99.90;;;;;;5031334;28;20426;-51
2023/01/25 05:01:37;;;;;;;64.22;28.27;;;1.40;99.90;;;;;;5031969;28;20025;-50
2023/01/25 05:04:02;;;;;;;65.78;27.02;;;1.40;99.90;;;;;;5031308;28;20490;-53
2023/01/25 05:06:27;;;;;;;69.20;27.90;;;1.50;99.90;;;;;;5031210;28;20720;-51
2023/01/25 05:08:53;;;;;;;63.33;26.70;;;1.40;99.90;;;;;;5031799;28;20116;-49
2023/01/25 05:11:19;;;;;;;70.30;27.60;;;1.30;99.90;;;;;;5031518;28;20025;-52
2023/01/25 05:13:44;;;;;;;61.75;26.45;;;1.20;99.90;;;;;;5031664;28;20295;-50
2023/01/25 05:16:10;;;;;;;59.85;26.98;;;1.20;99.90;;;;;;5033058;28;20025;-50
2023/01/25 05:18:35;;;;;;;66.15;28.02;;;1.30;99.90;;;;;;5057093;28;20017;-50
2023/01/25 05:21:01;;;;;;;66.85;28.10;;;1.20;99.90;;;;;;5067199;28;20021;-52
2023/01/25 05:23:26;;;;;;;69.22;27.27;;;1.10;99.90;;;;;;5072678;28;20021;-50
2023/01/25 05:28:36;;;;;;;65.85;25.55;;;1.10;99.90;;;;;;5072473;28;20059;-51
2023/01/25 05:31:05;;;;;;;73.40;30.40;;;1.00;99.90;;;;;;5071018;28;20587;-50
2023/01/25 05:33:30;;;;;;;72.35;28.88;;;1.00;99.90;;;;;;5072229;28;20086;-51
2023/01/25 05:35:57;;;;;;;69.70;28.80;;;0.90;99.90;;;;;;5071865;28;20032;-49
2023/01/25 05:38:23;;;;;;;72.40;29.30;;;0.90;99.90;;;;;;5071011;28;20052;-50
2023/01/25 05:40:49;;;;;;;63.97;26.40;;;0.90;99.90;;;;;;5072107;28;20048;-50
2023/01/25 05:43:14;;;;;;;72.32;28.58;;;0.90;99.90;;;;;;5071984;28;20024;-50
2023/01/25 05:45:40;;;;;;;61.40;26.23;;;1.00;99.90;;;;;;5062052;28;20082;-52
2023/01/25 05:48:05;;;;;;;64.03;24.65;;;0.90;99.90;;;;;;5047423;28;20032;-51
2023/01/25 05:50:31;;;;;;;67.80;26.23;;;1.00;99.90;;;;;;5047984;28;20082;-50
2023/01/25 05:52:56;;;;;;;61.67;24.38;;;1.00;99.90;;;;;;5044980;28;20036;-49
2023/01/25 05:55:22;;;;;;;61.38;24.33;;;1.00;99.90;;;;;;5063652;28;20481;-52
2023/01/25 05:57:47;;;;;;;52.67;21.60;;;1.20;99.90;;;;;;5053383;28;20025;-51
2023/01/25 06:00:13;;;;;;;57.88;24.38;;;1.10;99.90;;;;;;5065950;28;20063;-51
2023/01/25 06:02:39;;;;;;;56.58;23.45;;;1.10;99.90;;;;;;5058214;28;20021;-51
2023/01/25 06:05:05;;;;;;;55.75;23.92;;;1.20;99.90;;;;;;5057959;28;20060;-50
2023/01/25 06:07:37;;;;;;;51.33;22.50;;;1.10;99.90;;;;;;5050650;28;20394;-51
2023/01/25 06:10:04;;;;;;;49.00;20.45;;;1.10;99.90;;;;;;5066673;28;20175;-50
2023/01/25 06:12:30;;;;;;;50.08;22.40;;;1.20;99.90;;;;;;5056838;28;20464;-49
2023/01/25 06:14:55;;;;;;;52.22;21.02;;;1.10;99.90;;;;;;5057449;28;20140;-52
2023/01/25 06:17:21;;;;;;;44.05;19.35;;;1.20;99.90;;;;;;5047796;28;20468;-52
2023/01/25 06:19:46;;;;;;;44.58;19.92;;;1.20;99.90;;;;;;5038483;28;20018;-50
2023/01/25 06:22:16;;;;;;;53.08;23.33;;;1.20;99.90;;;;;;5044353;28;20378;-49
2023/01/25 06:24:43;;;;;;;50.15;22.80;;;1.20;99.90;;;;;;5047963;28;20017;-50
2023/01/25 06:27:11;;;;;;;42.45;19.15;;;1.00;99.90;;;;;;5047931;28;20320;-50
2023/01/25 06:29:36;;;;;;;49.67;20.73;;;1.00;99.90;;;;;;5053937;28;20017;-50
2023/01/25 06:32:02;;;;;;;43.78;18.10;;;0.80;99.90;;;;;;5063087;28;20039;-48
2023/01/25 06:34:28;;;;;;;46.05;18.73;;;0.90;99.90;;;;;;5050301;28;20092;-50
2023/01/25 06:36:53;;;;;;;39.72;16.95;;;0.90;99.90;;;;;;5049353;28;20406;-49
2023/01/25 06:39:19;;;;;;;36.83;16.40;;;1.00;99.90;;;;;;5054325;28;20025;-51
2023/01/25 06:41:45;;;;;;;40.25;20.05;;;1.00;99.90;;;;;;5042968;28;20033;-49
2023/01/25 06:44:11;;;;;;;37.78;17.88;;;1.10;99.90;;;;;;5041494;28;20029;-51
2023/01/25 06:46:36;;;;;;;40.75;17.05;;;1.10;99.90;;;;;;5043698;28;20028;-51
2023/01/25 06:49:02;;;;;;;36.08;16.35;;;0.90;99.90;;;;;;5045582;28;20121;-50
2023/01/25 06:51:28;;;;;;;35.08;16.77;;;0.90;99.90;;;;;;5043346;28;20033;-52
2023/01/25 06:53:54;;;;;;;40.92;17.73;;;0.90;99.90;;;;;;5041565;28;20013;-52
2023/01/25 06:56:21;;;;;;;36.33;16.38;;;0.80;99.90;;;;;;5038900;28;20279;-51
2023/01/25 06:58:47;;;;;;;36.10;17.00;;;0.80;99.90;;;;;;5040389;28;20079;-48
2023/01/25 07:01:19;;;;;;;47.25;18.35;;;0.70;99.90;;;;;;5036464;28;20064;-50
2023/01/25 07:03:49;;;;;;;47.25;18.55;;;0.70;99.90;;;;;;5035907;28;20048;-49
2023/01/25 07:06:14;;;;;;;40.95;18.98;;;0.60;99.90;;;;;;5037631;28;20083;-50
2023/01/25 07:08:40;;;;;;;41.72;19.50;;;0.70;99.90;;;;;;5055884;28;20029;-49
2023/01/25 07:11:10;;;;;;;41.55;18.98;;;0.70;99.90;;;;;;5068909;28;20094;-49
2023/01/25 07:13:36;;;;;;;;;;;0.70;99.90;;;;;;5069836;28;20480;-51
2023/01/25 07:16:04;;;;;;;37.38;16.73;;;0.80;99.90;;;;;;5068344;28;19908;-49
2023/01/25 07:18:30;;;;;;;40.47;16.95;;;0.90;99.90;;;;;;5062449;28;20141;-50
2023/01/25 07:21:04;;;;;;;43.70;16.60;;;0.90;99.90;;;;;;5059131;28;20051;-51
2023/01/25 07:23:31;;;;;;;38.97;17.65;;;1.00;99.90;;;;;;5060902;28;20028;-49
2023/01/25 07:25:57;;;;;;;39.88;17.55;;;1.00;99.90;;;;;;5068351;28;20089;-49
2023/01/25 07:28:24;;;;;;;35.97;16.00;;;1.00;99.90;;;;;;5054680;28;20445;-50
2023/01/25 07:30:50;;;;;;;36.40;16.38;;;1.00;99.90;;;;;;5061958;28;20258;-50
2023/01/25 07:33:15;;;;;;;38.10;16.77;;;1.00;99.90;;;;;;5042830;28;20036;-49
2023/01/25 07:35:41;;;;;;;34.70;15.43;;;0.90;99.90;;;;;;5057474;28;20324;-49
2023/01/25 07:38:07;;;;;;;39.95;17.50;;;1.00;99.90;;;;;;5041271;28;20445;-49
2023/01/25 07:40:32;;;;;;;39.85;17.13;;;1.00;99.90;;;;;;5040530;28;20086;-50
2023/01/25 07:42:58;;;;;;;38.10;16.90;;;1.00;99.90;;;;;;5048151;28;20021;-49
2023/01/25 07:45:30;;;;;;;31.58;15.93;;;1.10;99.90;;;;;;5048028;28;20021;-51
2023/01/25 07:47:59;;;;;;;37.58;16.85;;;1.10;99.90;;;;;;5052120;28;20044;-50
2023/01/25 07:50:28;;;;;;;36.58;15.25;;;0.90;99.90;;;;;;5049612;28;20033;-51
2023/01/25 07:52:54;;;;;;;43.33;17.27;;;0.80;99.90;;;;;;5059828;28;20100;-49
2023/01/25 07:55:20;;;;;;;43.22;18.17;;;0.80;99.90;;;;;;5036853;28;20030;-51
2023/01/25 07:57:46;;;;;;;44.90;18.55;;;0.80;99.90;;;;;;5037122;28;20021;-49
2023/01/25 08:00:13;;;;;;;41.65;15.85;;;0.70;99.90;;;;;;5037396;28;20680;-49
2023/01/25 08:02:38;;;;;;;34.83;15.75;;;0.80;99.90;;;;;;5041162;28;20027;-50
2023/01/25 08:05:05;;;;;;;33.53;15.13;;;0.90;99.90;;;;;;5049599;28;20021;-51
2023/01/25 08:07:31;;;;;;;41.20;16.50;;;0.90;99.90;;;;;;5040992;28;20405;-52
2023/01/25 08:09:56;;;;;;;33.15;16.27;;;0.90;99.90;;;;;;5047152;28;20013;-49
2023/01/25 08:12:22;;;;;;;29.38;14.85;;;0.90;99.90;;;;;;5045041;28;20029;-50
2023/01/25 08:14:49;;;;;;;35.85;16.13;;;0.90;99.90;;;;;;5046940;28;20082;-49
2023/01/25 08:17:14;;;;;;;36.85;16.20;;;0.90;99.90;;;;;;5050186;28;20423;-51
2023/01/25 08:19:40;;;;;;;36.55;18.00;;;0.90;99.90;;;;;;5045916;28;20100;-51
2023/01/25 08:22:08;;;;;;;43.05;19.35;;;0.90;99.90;;;;;;5045399;28;20032;-53
2023/01/25 08:24:34;;;;;;;37.00;16.63;;;0.90;99.90;;;;;;5038541;28;20031;-52
2023/01/25 08:26:59;;;;;;;33.67;16.58;;;1.00;99.90;;;;;;5033243;28;20033;-50
2023/01/25 08:29:26;;;;;;;34.15;15.82;;;1.00;99.90;;;;;;5042637;28;20450;-51
2023/01/25 08:31:53;;;;;;;33.13;15.60;;;1.10;99.90;;;;;;5038654;28;20071;-50
2023/01/25 08:34:18;;;;;;;36.92;16.67;;;1.10;99.90;;;;;;5037497;28;20037;-51
2023/01/25 08:36:44;;;;;;;37.78;16.77;;;1.20;99.90;;;;;;5039778;28;20433;-50
2023/01/25 08:39:11;;;;;;;34.97;16.40;;;1.20;99.90;;;;;;5040676;28;20060;-52
2023/01/25 08:41:37;;;;;;;31.20;14.85;;;1.10;99.90;;;;;;5034414;28;20029;-49
2023/01/25 08:44:03;;;;;;;33.55;16.13;;;1.20;99.90;;;;;;5035492;28;20532;-51
2023/01/25 08:46:31;;;;;;;34.42;15.70;;;1.20;99.90;;;;;;5035451;28;20124;-49
2023/01/25 08:48:58;;;;;;;33.58;14.82;;;1.10;99.90;;;;;;5039368;28;20021;-50
2023/01/25 08:51:24;;;;;;;33.25;14.20;;;1.20;99.90;;;;;;5039611;28;20494;-51
2023/01/25 08:53:49;;;;;;;32.17;14.70;;;1.20;99.90;;;;;;5040485;28;20040;-49
2023/01/25 08:56:16;;;;;;;34.00;14.02;;;1.20;99.90;;;;;;5044793;28;20525;-52
2023/01/25 08:58:44;;;;;;;27.63;12.07;;;1.20;99.90;;;;;;5042453;28;20029;-53
2023/01/25 09:01:12;;;;;;;32.33;13.40;;;1.10;99.90;;;;;;5041972;28;20024;-49
2023/01/25 09:03:42;;;;;;;32.08;14.20;;;1.10;99.90;;;;;;5044875;28;20022;-53
2023/01/25 09:06:09;;;;;;;34.55;14.65;;;1.10;99.90;;;;;;5039837;28;20112;-51
2023/01/25 09:08:36;;;;;;;31.27;14.73;;;1.10;99.90;;;;;;5042072;28;20021;-51
2023/01/25 09:11:04;;;;;;;35.35;15.55;;;1.10;99.90;;;;;;5047137;28;20017;-52
2023/01/25 09:13:30;;;;;;;34.10;16.23;;;1.10;99.90;;;;;;5044267;28;20414;-50
2023/01/25 09:16:07;;;;;;;37.33;16.92;;;1.20;99.90;;;;;;5041265;28;20021;-49
2023/01/25 09:18:35;;;;;;;40.25;19.52;;;1.10;99.90;;;;;;5048012;28;20024;-50
2023/01/25 09:21:12;;;;;;;38.28;17.45;;;1.20;99.90;;;;;;5045797;28;20141;-49
2023/01/25 09:23:38;;;;;;;37.28;16.98;;;1.10;99.90;;;;;;5046412;28;20037;-49
2023/01/25 09:26:04;;;;;;;37.53;15.70;;;1.00;99.90;;;;;;5040191;28;20026;-49
2023/01/25 09:28:30;;;;;;;46.20;16.55;;;0.90;99.90;;;;;;5047102;28;20032;-50
2023/01/25 09:30:58;;;;;;;40.28;16.02;;;0.90;99.90;;;;;;5040803;28;20104;-49
2023/01/25 09:33:26;;;;;;;35.33;14.63;;;1.00;99.90;;;;;;5043001;28;20100;-50
2023/01/25 09:35:52;;;;;;;37.95;13.70;;;1.00;99.90;;;;;;5038377;28;20029;-49
2023/01/25 09:38:17;;;;;;;43.97;16.13;;;1.00;99.90;;;;;;5041213;28;20021;-50
2023/01/25 09:40:54;;;;;;;34.53;15.00;;;1.00;99.90;;;;;;5042327;28;20505;-50
2023/01/25 09:43:38;;;;;;;38.40;15.13;;;1.00;99.90;;;;;;5042437;28;20021;-51
2023/01/25 09:46:27;;;;;;;36.53;15.60;;;1.00;99.90;;;;;;5039873;28;20071;-51
2023/01/25 09:49:20;;;;;;;30.20;13.90;;;1.00;99.90;;;;;;5046929;28;20029;-52
2023/01/25 09:51:56;;;;;;;33.17;14.10;;;1.10;99.90;;;;;;5044649;28;20029;-52
2023/01/25 09:54:22;;;;;;;37.35;16.05;;;1.20;99.90;;;;;;5041226;28;20021;-49
2023/01/25 09:56:50;;;;;;;29.80;14.27;;;1.20;99.90;;;;;;5041876;28;20391;-50
2023/01/25 09:59:20;;;;;;;33.65;13.75;;;1.00;99.90;;;;;;5042390;28;20087;-51
2023/01/25 10:01:50;;;;;;;34.90;15.35;;;1.10;99.90;;;;;;5042478;28;20017;-51
2023/01/25 10:04:19;;;;;;;34.00;14.50;;;1.20;99.90;;;;;;5041277;28;20028;-49
2023/01/25 10:06:50;;;;;;;32.22;12.77;;;1.20;99.90;;;;;;5045232;28;20500;-49
2023/01/25 10:09:30;;;;;;;37.60;15.27;;;1.20;99.90;;;;;;5044801;28;20040;-50
2023/01/25 10:12:03;;;;;;;32.40;14.35;;;1.10;99.90;;;;;;5039429;28;20525;-50
2023/01/25 10:14:34;;;;;;;32.70;13.77;;;1.00;99.90;;;;;;5042748;28;20064;-50
2023/01/25 10:17:08;;;;;;;29.90;13.45;;;1.10;99.90;;;;;;5038918;28;20683;-49
2023/01/25 10:19:48;;;;;;;29.65;13.50;;;1.10;99.90;;;;;;5049159;28;20032;-49
2023/01/25 10:22:22;;;;;;;30.50;12.98;;;1.00;99.90;;;;;;5060079;28;20078;-52
2023/01/25 10:25:10;;;;;;;38.97;14.98;;;1.00;99.90;;;;;;5055424;28;20059;-49
2023/01/25 10:27:49;;;;;;;30.15;14.40;;;0.90;99.90;;;;;;5053934;28;20020;-50
2023/01/25 10:30:46;;;;;;;31.80;15.30;;;0.90;99.90;;;;;;5033238;28;20097;-50
2023/01/25 10:33:18;;;;;;;31.17;12.88;;;0.80;99.90;;;;;;5038394;28;20037;-53
2023/01/25 10:35:47;;;;;;;39.30;15.13;;;0.90;99.90;;;;;;5035282;28;20101;-51
2023/01/25 10:38:28;;;;;;;37.70;15.82;;;0.90;99.90;;;;;;5052159;28;20198;-51
2023/01/25 10:41:00;;;;;;;35.38;15.48;;;1.00;99.90;;;;;;5028839;28;20097;-51
2023/01/25 10:43:26;;;;;;;41.45;17.45;;;0.90;99.90;;;;;;5037976;28;20013;-49
2023/01/25 10:45:52;;;;;;;39.22;17.30;;;0.80;99.90;;;;;;5036070;28;20501;-49
2023/01/25 10:48:26;;;;;;;39.55;16.13;;;0.90;99.90;;;;;;5039763;28;20033;-52
2023/01/25 10:50:54;;;;;;;32.90;14.27;;;0.80;99.90;;;;;;5041061;28;20279;-50
2023/01/25 10:53:19;;;;;;;31.67;13.50;;;1.00;99.90;;;;;;5039272;28;20017;-51
2023/01/25 10:55:57;;;;;;;29.73;13.48;;;1.00;99.90;;;;;;5038859;28;20025;-50
2023/01/25 10:58:40;;;;;;;32.97;15.27;;;1.10;99.90;;;;;;5041822;28;20070;-51
2023/01/25 11:01:11;;;;;;;31.55;14.95;;;1.00;99.90;;;;;;5039433;28;20017;-51
2023/01/25 11:03:37;;;;;;;37.03;16.63;;;0.90;99.90;;;;;;5037996;28;20552;-49
2023/01/25 11:06:04;;;;;;;52.05;19.40;;;1.00;99.90;;;;;;5035305;28;20033;-51
2023/01/25 11:08:29;;;;;;;42.25;17.13;;;1.00;99.90;;;;;;5038485;28;20021;-50
2023/01/25 11:10:55;;;;;;;39.45;17.50;;;0.80;99.90;;;;;;5043582;28;20106;-50
2023/01/25 11:13:31;;;;;;;54.03;20.50;;;0.60;99.90;;;;;;5046304;28;20533;-49
2023/01/25 11:16:17;;;;;;;49.90;20.30;;;0.50;99.90;;;;;;5033877;28;20509;-49
2023/01/25 11:18:51;;;;;;;54.05;22.52;;;0.50;99.90;;;;;;5033956;28;20036;-50
2023/01/25 11:21:20;;;;;;;47.95;20.52;;;0.70;99.90;;;;;;5052010;28;20549;-50
2023/01/25 11:23:59;;;;;;;53.25;21.50;;;0.70;99.90;;;;;;5060431;28;20021;-49
2023/01/25 11:26:25;;;;;;;55.10;23.30;;;0.70;99.90;;;;;;5068811;28;20024;-49
2023/01/25 11:29:06;;;;;;;46.60;20.55;;;0.80;99.90;;;;;;5068950;28;20028;-49
2023/01/25 11:31:32;;;;;;;51.42;21.77;;;0.80;99.90;;;;;;5055370;28;20343;-51
2023/01/25 11:33:57;;;;;;;47.90;21.63;;;0.90;99.90;;;;;;5060720;28;20074;-49
2023/01/25 11:36:29;;;;;;;52.00;22.13;;;0.90;99.90;;;;;;5046243;28;20107;-49
2023/01/25 11:39:19;;;;;;;44.47;20.33;;;0.90;99.90;;;;;;5041601;28;20087;-50
2023/01/25 11:42:02;;;;;;;53.55;21.27;;;0.90;99.90;;;;;;5042043;28;20022;-49
2023/01/25 11:45:06;;;;;;;48.60;21.40;;;0.90;99.90;;;;;;5052036;28;20030;-51
2023/01/25 11:48:04;;;;;;;43.63;20.50;;;0.90;99.90;;;;;;5064014;28;20029;-49
2023/01/25 11:50:46;;;;;;;41.55;17.70;;;0.80;99.90;;;;;;5059694;28;20032;-50
2023/01/25 11:53:27;;;;;;;39.72;18.15;;;0.80;99.90;;;;;;5068635;28;20485;-53
2023/01/25 11:56:06;;;;;;;45.75;20.98;;;0.80;99.90;;;;;;5048022;28;20194;-49
2023/01/25 11:58:57;;;;;;;50.38;21.98;;;0.90;99.90;;;;;;5045341;28;20430;-51
2023/01/25 12:01:22;;;;;;;;;;;0.90;99.90;;;;;;5060675;28;20029;-51
2023/01/25 12:04:03;;;;;;;52.47;23.50;;;0.90;99.90;;;;;;5068843;28;19995;-52
2023/01/25 12:06:31;;;;;;;71.82;29.17;;;0.90;99.90;;;;;;5054914;28;20075;-49
2023/01/25 12:09:20;;;;;;;85.90;34.40;;;0.90;99.90;;;;;;5060583;28;20032;-50
2023/01/25 12:11:54;;;;;;;85.63;32.83;;;0.90;99.90;;;;;;5048245;28;20020;-51
2023/01/25 12:14:35;;;;;;;89.75;34.13;;;0.90;99.90;;;;;;5041983;28;20028;-49
2023/01/25 12:17:07;;;;;;;;;;;0.90;99.90;;;;;;5039227;28;20020;-51
2023/01/25 12:20:08;;;;;;;103.03;37.97;;;0.90;99.90;;;;;;5041674;28;20323;-49
2023/01/25 12:23:01;;;;;;;96.78;35.92;;;0.90;99.90;;;;;;5039244;28;20032;-48
2023/01/25 12:25:55;;;;;;;106.40;40.90;;;0.80;99.90;;;;;;5040347;28;20036;-48
2023/01/25 12:28:33;;;;;;;101.88;39.30;;;0.70;99.90;;;;;;5043742;28;20030;-50
2023/01/25 12:31:22;;;;;;;106.88;39.95;;;0.60;99.90;;;;;;5045542;28;20502;-49
2023/01/25 12:33:59;;;;;;;93.32;35.38;;;0.70;99.90;;;;;;5041641;28;20018;-49
2023/01/25 12:36:50;;;;;;;92.22;36.08;;;0.70;99.90;;;;;;5035363;28;20111;-50
2023/01/25 12:39:26;;;;;;;78.65;33.58;;;0.80;99.90;;;;;;5041080;28;20108;-48
2023/01/25 12:42:03;;;;;;;91.22;33.83;;;0.80;99.90;;;;;;5040796;28;20018;-48
2023/01/25 12:44:35;;;;;;;89.78;35.50;;;0.60;99.90;;;;;;5040751;28;20018;-49
2023/01/25 12:47:15;;;;;;;74.85;31.60;;;0.50;99.90;;;;;;5045521;28;20025;-48
2023/01/25 12:50:01;;;;;;;85.50;31.85;;;0.40;99.90;;;;;;5048175;28;20120;-49
2023/01/25 12:52:34;;;;;;;72.32;27.25;;;0.50;99.90;;;;;;5044844;28;20037;-48